Scilly, United Kingdom
Current Conditions -  °F | °C
As of 3:50 PM on Friday 21 Nov 2014 (Local Time) from EGHE Reporting Station
Moderate Fog Moderate Fog  
Wind Chill: 14°   Ceiling: 100
Heat Index: 14°   Visibility: 0.37mi
Dew Point: 13°   Wind: 24mph
Humidity: 94%   Direction: 170°S
Pressure: 29.77"   Gusts: NA
Location:  49.93°N, 6.31°W
Report Text: EGHE 211550Z 17021KT 0600 FG OVC001 14/13 Q1008
Loading
Personal Weather Stations






























Interactive Weather Map New forecast layout! Learn more

10-Day Weather Forecast

Advertisements
Track Severe Weather on mobile